createdAt,value
2022-08-07T00:02:36.551Z,10.85
2022-08-07T00:03:36.865Z,8.68
2022-08-07T00:05:10.343Z,10.73
2022-08-07T00:06:51.890Z,12.13
2022-08-07T00:08:24.372Z,10.82
2022-08-07T00:10:19.326Z,12.05
2022-08-07T00:11:55.510Z,10.50
2022-08-07T00:13:27.984Z,10.65
2022-08-07T00:14:59.684Z,9.38
2022-08-07T00:16:31.456Z,10.65
2022-08-07T00:18:03.395Z,11.13
2022-08-07T00:20:02.529Z,8.55
2022-08-07T00:21:57.004Z,11.18
2022-08-07T00:23:21.438Z,11.57
2022-08-07T00:24:53.336Z,8.90
2022-08-07T00:26:49.369Z,10.98
2022-08-07T00:28:18.098Z,9.43
2022-08-07T00:29:53.736Z,11.48
2022-08-07T00:31:37.278Z,10.45
2022-08-07T00:33:10.672Z,10.38
2022-08-07T00:34:43.328Z,10.73
2022-08-07T00:36:15.032Z,10.07
2022-08-07T00:37:50.819Z,12.15
2022-08-07T00:39:22.717Z,9.40
2022-08-07T00:40:55.485Z,9.45
2022-08-07T00:42:29.975Z,10.00
2022-08-07T00:44:02.993Z,8.93
2022-08-07T00:45:34.920Z,8.43
2022-08-07T00:47:15.913Z,8.30
2022-08-07T00:49:02.992Z,10.88
2022-08-07T00:50:50.467Z,9.38
2022-08-07T00:52:24.561Z,12.02
2022-08-07T00:53:58.155Z,10.10
2022-08-07T00:56:03.301Z,9.57
2022-08-07T00:57:22.401Z,10.02
2022-08-07T00:58:55.038Z,10.25
2022-08-07T01:00:27.879Z,9.65
2022-08-07T01:02:02.112Z,9.40
2022-08-07T01:03:55.765Z,9.90
2022-08-07T01:05:27.442Z,9.25
2022-08-07T01:07:02.141Z,11.15
2022-08-07T01:08:51.437Z,12.60
2022-08-07T01:10:26.885Z,9.98
2022-08-07T01:12:27.437Z,9.90
2022-08-07T01:13:55.909Z,10.82
2022-08-07T01:16:00.681Z,12.48
2022-08-07T01:17:21.423Z,10.38
2022-08-07T01:18:55.780Z,10.13
2022-08-07T01:20:34.688Z,10.43
2022-08-07T01:22:22.754Z,10.77
2022-08-07T01:24:02.037Z,10.73
2022-08-07T01:25:54.787Z,10.68
2022-08-07T01:27:27.191Z,11.27
2022-08-07T01:29:07.070Z,10.85
2022-08-07T01:30:40.272Z,12.68
2022-08-07T01:32:14.522Z,9.50
2022-08-07T01:33:56.171Z,10.90
2022-08-07T01:35:53.685Z,11.32
2022-08-07T01:37:26.917Z,12.02
2022-08-07T01:39:09.882Z,11.73
2022-08-07T01:40:45.749Z,12.80
2022-08-07T01:42:38.354Z,11.25
2022-08-07T01:44:12.679Z,12.13
2022-08-07T01:45:46.648Z,12.68
2022-08-07T01:48:18.534Z,9.88
2022-08-07T01:49:15.475Z,13.45
2022-08-07T01:50:52.826Z,12.02
2022-08-07T01:52:31.349Z,13.43
2022-08-07T01:54:11.652Z,11.80
2022-08-07T01:55:49.210Z,10.85
2022-08-07T01:57:26.458Z,13.45
2022-08-07T01:59:05.114Z,12.70
2022-08-07T02:00:49.052Z,13.85
2022-08-07T02:03:11.409Z,11.82
2022-08-07T02:04:26.660Z,12.43
2022-08-07T02:06:08.890Z,11.23
2022-08-07T02:08:01.077Z,12.20
2022-08-07T02:09:53.166Z,11.70
2022-08-07T02:12:02.729Z,13.18
2022-08-07T02:13:47.033Z,10.48
2022-08-07T02:15:26.395Z,13.25
2022-08-07T02:17:00.014Z,9.88
2022-08-07T02:18:34.415Z,10.65
2022-08-07T02:20:19.688Z,13.60
2022-08-07T02:21:56.666Z,14.43
2022-08-07T02:23:35.847Z,12.52
2022-08-07T02:25:17.171Z,11.30
2022-08-07T02:27:01.153Z,14.60
2022-08-07T02:28:36.651Z,12.80
2022-08-07T02:30:13.605Z,13.73
2022-08-07T02:31:48.569Z,10.52
2022-08-07T02:33:22.875Z,11.25
2022-08-07T02:34:57.974Z,15.15
2022-08-07T02:36:33.794Z,11.68
2022-08-07T02:38:15.958Z,11.05
2022-08-07T02:40:29.493Z,10.75
2022-08-07T02:41:43.829Z,11.85
2022-08-07T02:43:24.240Z,11.25
2022-08-07T02:45:01.315Z,10.80
2022-08-07T02:46:54.446Z,10.95
2022-08-07T02:48:27.460Z,10.93
2022-08-07T02:50:00.921Z,12.90
2022-08-07T02:51:42.848Z,10.20
2022-08-07T02:53:31.322Z,19.40
2022-08-07T02:55:28.341Z,12.98
2022-08-07T02:57:14.379Z,11.70
2022-08-07T02:58:47.199Z,12.10
2022-08-07T03:00:20.336Z,9.32
2022-08-07T03:01:55.216Z,10.10
2022-08-07T03:03:49.479Z,10.57
2022-08-07T03:05:29.130Z,9.63
2022-08-07T03:07:10.641Z,11.70
2022-08-07T03:08:46.018Z,10.20
2022-08-07T03:10:19.670Z,11.35
2022-08-07T03:11:57.774Z,11.38
2022-08-07T03:13:39.303Z,11.32
2022-08-07T03:15:30.256Z,10.40
2022-08-07T03:17:16.305Z,11.05
2022-08-07T03:18:48.993Z,10.25
2022-08-07T03:20:22.044Z,10.10
2022-08-07T03:21:55.635Z,11.25
2022-08-07T03:23:34.157Z,10.25
2022-08-07T03:25:23.806Z,11.75
2022-08-07T03:27:03.098Z,10.82
2022-08-07T03:28:46.333Z,9.95
2022-08-07T03:30:20.473Z,10.75
2022-08-07T03:31:57.304Z,10.35
2022-08-07T03:33:32.240Z,9.85
2022-08-07T03:35:26.076Z,10.90
2022-08-07T03:36:59.882Z,11.02
2022-08-07T03:38:47.017Z,10.48
2022-08-07T03:40:19.904Z,10.63
2022-08-07T03:41:55.680Z,11.10
2022-08-07T03:43:33.492Z,10.88
2022-08-07T03:45:09.463Z,10.57
2022-08-07T03:47:14.242Z,10.02
2022-08-07T03:48:45.475Z,9.88
2022-08-07T03:50:28.965Z,10.18
2022-08-07T03:52:03.027Z,10.57
2022-08-07T03:54:02.047Z,10.55
2022-08-07T03:55:53.328Z,10.93
2022-08-07T03:59:04.763Z,12.73
2022-08-07T03:59:18.894Z,11.07
2022-08-07T04:00:59.564Z,11.45
2022-08-07T04:02:33.158Z,11.25
2022-08-07T04:04:05.718Z,11.52
2022-08-07T04:05:41.010Z,10.18
2022-08-07T04:07:22.892Z,13.60
2022-08-07T04:08:56.697Z,13.00
2022-08-07T04:10:29.492Z,10.88
2022-08-07T04:12:27.668Z,11.35
2022-08-07T04:14:33.187Z,11.45
2022-08-07T04:15:49.151Z,10.68
2022-08-07T04:17:22.848Z,12.05
2022-08-07T04:19:15.604Z,11.82
2022-08-07T04:20:54.829Z,13.02
2022-08-07T04:22:29.789Z,12.18
2022-08-07T04:24:10.363Z,11.82
2022-08-07T04:26:03.709Z,12.32
2022-08-07T04:27:46.089Z,14.02
2022-08-07T04:29:40.339Z,12.43
2022-08-07T04:31:38.487Z,11.40
2022-08-07T04:33:17.693Z,10.38
2022-08-07T04:34:53.946Z,12.98
2022-08-07T04:36:26.394Z,10.07
2022-08-07T04:38:05.545Z,12.00
2022-08-07T04:41:20.539Z,11.43
2022-08-07T04:43:01.398Z,11.20
2022-08-07T04:44:36.799Z,10.73
2022-08-07T04:46:34.795Z,12.45
2022-08-07T04:48:23.914Z,10.98
2022-08-07T04:50:05.328Z,10.48
2022-08-07T04:51:51.077Z,13.10
2022-08-07T04:54:02.004Z,12.68
2022-08-07T04:58:16.095Z,12.13
2022-08-07T04:58:24.302Z,12.95
2022-08-07T05:00:12.728Z,13.35
2022-08-07T05:01:35.310Z,13.45
2022-08-07T05:04:00.977Z,12.05
2022-08-07T05:05:53.497Z,10.98
2022-08-07T05:09:02.732Z,10.65
2022-08-07T05:10:47.780Z,12.48
2022-08-07T05:12:38.009Z,14.80
2022-08-07T05:14:52.379Z,12.13
2022-08-07T05:16:15.557Z,11.48
2022-08-07T05:17:55.553Z,12.48
2022-08-07T05:23:16.424Z,11.00
2022-08-07T05:24:51.918Z,10.88
2022-08-07T05:26:26.135Z,12.52
2022-08-07T05:28:20.085Z,11.07
2022-08-07T05:29:53.817Z,10.40
2022-08-07T05:31:35.366Z,12.15
2022-08-07T05:33:14.905Z,13.50
2022-08-07T05:34:49.644Z,11.38
2022-08-07T05:36:32.150Z,12.98
2022-08-07T05:38:10.299Z,11.32
2022-08-07T05:40:05.073Z,11.23
2022-08-07T05:42:01.619Z,14.35
2022-08-07T05:43:49.693Z,12.60
2022-08-07T05:45:28.158Z,10.18
2022-08-07T05:47:20.018Z,12.00
2022-08-07T05:48:59.036Z,10.77
2022-08-07T05:50:34.186Z,10.48
2022-08-07T05:52:06.364Z,10.10
2022-08-07T05:54:09.273Z,10.60
2022-08-07T05:56:03.132Z,12.20
2022-08-07T05:57:30.141Z,13.77
2022-08-07T05:59:12.343Z,13.88
2022-08-07T06:00:50.958Z,11.02
2022-08-07T06:02:29.039Z,10.60
2022-08-07T06:05:48.860Z,10.93
2022-08-07T06:07:32.675Z,10.73
2022-08-07T06:09:15.170Z,10.73
2022-08-07T06:10:51.278Z,12.27
2022-08-07T06:12:31.746Z,14.05
2022-08-07T06:14:12.436Z,12.02
2022-08-07T06:15:55.503Z,10.43
2022-08-07T06:17:38.094Z,12.25
2022-08-07T06:19:17.874Z,11.68
2022-08-07T06:22:11.857Z,11.02
2022-08-07T06:23:01.812Z,10.40
2022-08-07T06:24:58.200Z,10.68
2022-08-07T06:26:33.469Z,10.20
2022-08-07T06:28:07.649Z,9.07
2022-08-07T06:29:40.325Z,9.20
2022-08-07T06:31:12.876Z,13.35
2022-08-07T06:32:46.024Z,9.98
2022-08-07T06:34:20.465Z,11.65
2022-08-07T06:36:12.103Z,10.27
2022-08-07T06:37:53.077Z,12.40
2022-08-07T06:40:18.290Z,9.90
2022-08-07T06:42:00.657Z,10.20
2022-08-07T06:43:22.271Z,12.18
2022-08-07T06:45:21.053Z,10.80
2022-08-07T06:47:12.104Z,10.45
2022-08-07T06:48:47.699Z,10.25
2022-08-07T06:50:26.869Z,10.98
2022-08-07T06:52:07.406Z,11.77
2022-08-07T06:55:30.202Z,10.52
2022-08-07T06:55:53.677Z,9.65
2022-08-07T06:57:43.533Z,12.23
2022-08-07T07:00:12.146Z,9.82
2022-08-07T07:01:18.470Z,9.77
2022-08-07T07:02:57.448Z,9.05
2022-08-07T07:04:32.833Z,8.57
2022-08-07T07:06:11.183Z,10.80
2022-08-07T07:07:59.090Z,8.90
2022-08-07T07:09:36.111Z,7.53
2022-08-07T07:11:14.453Z,7.43
2022-08-07T07:13:06.354Z,13.50
2022-08-07T07:14:49.350Z,8.68
2022-08-07T07:16:27.197Z,7.40
2022-08-07T07:18:10.072Z,18.27
2022-08-07T07:19:57.330Z,9.48
2022-08-07T07:21:40.378Z,12.25
2022-08-07T07:24:09.034Z,8.18
2022-08-07T07:26:35.623Z,17.88
2022-08-07T07:27:20.505Z,17.65
2022-08-07T07:29:40.151Z,18.40
2022-08-07T07:30:53.186Z,15.45
2022-08-07T07:32:28.125Z,13.50
2022-08-07T07:34:03.681Z,16.17
2022-08-07T07:35:43.993Z,11.82
2022-08-07T07:37:44.470Z,13.40
2022-08-07T07:39:17.822Z,14.27
2022-08-07T07:40:50.760Z,14.07
2022-08-07T07:42:25.793Z,9.88
2022-08-07T07:44:16.960Z,10.32
2022-08-07T07:46:53.934Z,10.70
2022-08-07T07:47:52.814Z,10.80
2022-08-07T07:50:35.014Z,12.10
2022-08-07T07:51:21.625Z,11.15
2022-08-07T07:52:56.427Z,12.20
2022-08-07T07:54:30.571Z,10.27
2022-08-07T07:56:07.896Z,8.18
2022-08-07T07:57:52.330Z,14.50
2022-08-07T07:59:52.498Z,10.15
2022-08-07T08:02:01.849Z,12.15
2022-08-07T08:04:06.481Z,10.93
2022-08-07T08:05:14.342Z,7.72
2022-08-07T08:06:50.739Z,14.45
2022-08-07T08:08:35.037Z,9.57
2022-08-07T08:10:10.200Z,9.70
2022-08-07T08:12:02.116Z,6.25
2022-08-07T08:13:54.348Z,8.73
2022-08-07T08:15:58.007Z,9.05
2022-08-07T08:18:17.624Z,8.85
2022-08-07T08:20:16.020Z,7.82
2022-08-07T08:21:55.420Z,7.80
2022-08-07T08:23:47.213Z,8.32
2022-08-07T08:25:42.777Z,8.88
2022-08-07T08:27:22.883Z,5.35
2022-08-07T08:28:56.993Z,7.53
2022-08-07T08:30:34.595Z,6.13
2022-08-07T08:32:18.733Z,9.82
2022-08-07T08:33:58.924Z,9.77
2022-08-07T08:35:39.089Z,7.32
2022-08-07T08:38:07.319Z,6.78
2022-08-07T08:39:15.302Z,7.82
2022-08-07T08:40:57.107Z,7.40
2022-08-07T08:42:35.357Z,6.40
2022-08-07T08:44:19.375Z,8.98
2022-08-07T08:46:08.139Z,9.55
2022-08-07T08:49:32.729Z,2.85
2022-08-07T08:51:14.376Z,3.90
2022-08-07T08:53:02.339Z,4.22
2022-08-07T08:54:44.944Z,4.40
2022-08-07T08:56:24.684Z,3.72
2022-08-07T08:58:03.159Z,2.83
2022-08-07T08:59:48.259Z,4.30
2022-08-07T09:01:29.570Z,3.38
2022-08-07T09:03:22.163Z,5.53
2022-08-07T09:05:38.041Z,5.35
2022-08-07T09:07:16.805Z,6.68
2022-08-07T09:09:01.784Z,4.68
2022-08-07T09:10:46.946Z,4.07
2022-08-07T09:12:33.692Z,4.32
2022-08-07T09:14:13.336Z,4.10
2022-08-07T09:16:25.762Z,4.25
2022-08-07T09:17:59.562Z,4.47
2022-08-07T09:19:57.398Z,5.50
2022-08-07T09:22:10.382Z,4.70
2022-08-07T09:24:31.727Z,2.17
2022-08-07T09:25:39.397Z,2.30
2022-08-07T09:27:29.388Z,3.80
2022-08-07T09:30:04.596Z,4.18
2022-08-07T09:31:10.600Z,4.38
2022-08-07T09:33:24.325Z,3.10
2022-08-07T09:36:04.124Z,2.30
2022-08-07T09:37:03.023Z,2.42
2022-08-07T09:38:42.512Z,2.67
2022-08-07T09:40:29.909Z,4.13
2022-08-07T09:42:16.998Z,2.45
2022-08-07T09:44:06.714Z,1.58
2022-08-07T09:47:25.530Z,2.85
2022-08-07T09:48:12.049Z,2.42
2022-08-07T09:50:01.622Z,2.58
2022-08-07T09:52:16.787Z,3.22
2022-08-07T09:54:02.342Z,2.20
2022-08-07T09:56:03.631Z,4.28
2022-08-07T09:58:09.539Z,8.85
2022-08-07T10:00:02.307Z,3.78
2022-08-07T10:02:01.487Z,3.13
2022-08-07T10:04:05.879Z,2.97
2022-08-07T10:06:18.875Z,4.82
2022-08-07T10:08:09.853Z,4.28
2022-08-07T10:10:00.045Z,3.78
2022-08-07T10:12:02.474Z,5.32
2022-08-07T10:14:00.320Z,5.47
2022-08-07T10:16:02.214Z,5.40
2022-08-07T10:18:01.572Z,2.55
2022-08-07T10:19:48.890Z,6.70
2022-08-07T10:22:14.780Z,4.15
2022-08-07T10:24:05.224Z,3.22
2022-08-07T10:25:55.054Z,3.90
2022-08-07T10:27:47.612Z,3.35
2022-08-07T10:29:53.063Z,2.85
2022-08-07T10:31:56.663Z,2.22
2022-08-07T10:34:05.090Z,2.50
2022-08-07T10:35:57.482Z,5.60
2022-08-07T10:38:21.006Z,3.55
2022-08-07T10:40:05.913Z,2.70
2022-08-07T10:41:45.935Z,4.38
2022-08-07T10:43:34.278Z,1.38
2022-08-07T10:45:17.742Z,4.68
2022-08-07T10:46:59.866Z,2.80
2022-08-07T10:48:41.565Z,4.00
2022-08-07T10:50:26.454Z,3.95
2022-08-07T10:52:13.692Z,1.70
2022-08-07T10:54:00.022Z,1.30
2022-08-07T10:55:47.316Z,4.20
2022-08-07T10:57:34.628Z,2.67
2022-08-07T10:59:21.253Z,2.83
2022-08-07T11:01:01.873Z,3.03
2022-08-07T11:02:56.525Z,3.25
2022-08-07T11:04:46.244Z,3.08
2022-08-07T11:06:22.948Z,3.47
2022-08-07T11:08:11.791Z,3.75
2022-08-07T11:10:08.672Z,2.35
2022-08-07T11:11:46.125Z,2.08
2022-08-07T11:14:45.606Z,2.40
2022-08-07T11:15:31.557Z,4.05
2022-08-07T11:17:11.492Z,4.25
2022-08-07T11:18:51.694Z,3.92
2022-08-07T11:20:31.152Z,4.20
2022-08-07T11:22:18.841Z,5.70
2022-08-07T11:24:04.225Z,3.80
2022-08-07T11:25:48.006Z,3.33
2022-08-07T11:28:00.932Z,5.13
2022-08-07T11:29:41.189Z,3.28
2022-08-07T11:31:23.588Z,3.58
2022-08-07T11:33:02.970Z,2.15
2022-08-07T11:34:51.434Z,3.22
2022-08-07T11:36:37.613Z,1.77
2022-08-07T11:38:17.552Z,2.38
2022-08-07T11:40:07.474Z,3.72
2022-08-07T11:42:02.340Z,1.63
2022-08-07T11:44:11.018Z,2.28
2022-08-07T11:47:26.120Z,1.30
2022-08-07T11:50:31.032Z,2.00
2022-08-07T11:52:03.655Z,2.28
2022-08-07T11:54:00.568Z,3.72
2022-08-07T11:56:11.991Z,3.67
2022-08-07T11:57:59.791Z,2.75
2022-08-07T12:00:12.653Z,3.05
2022-08-07T12:01:59.697Z,2.25
2022-08-07T12:03:49.992Z,4.25
2022-08-07T12:05:47.139Z,2.75
2022-08-07T12:07:27.880Z,2.45
2022-08-07T12:09:22.238Z,2.20
2022-08-07T12:11:08.093Z,3.20
2022-08-07T12:12:56.426Z,5.10
2022-08-07T12:14:35.773Z,5.38
2022-08-07T12:16:28.890Z,4.43
2022-08-07T12:18:11.458Z,2.70
2022-08-07T12:20:03.295Z,4.03
2022-08-07T12:22:36.088Z,2.92
2022-08-07T12:24:07.482Z,2.53
2022-08-07T12:26:03.053Z,2.42
2022-08-07T12:28:04.071Z,2.63
2022-08-07T12:29:51.726Z,1.92
2022-08-07T12:31:52.985Z,2.92
2022-08-07T12:33:30.848Z,2.50
2022-08-07T12:35:24.099Z,2.88
2022-08-07T12:36:59.553Z,3.70
2022-08-07T12:38:42.530Z,1.92
2022-08-07T12:40:46.301Z,2.30
2022-08-07T12:42:13.290Z,2.40
2022-08-07T12:44:01.787Z,3.30
2022-08-07T12:45:45.611Z,1.63
2022-08-07T12:47:33.039Z,1.85
2022-08-07T12:49:25.888Z,2.28
2022-08-07T12:51:12.951Z,4.88
2022-08-07T12:52:59.375Z,3.33
2022-08-07T12:54:41.294Z,2.00
2022-08-07T12:56:26.642Z,4.60
2022-08-07T12:58:02.529Z,4.05
2022-08-07T12:59:54.415Z,3.38
2022-08-07T13:01:43.212Z,3.08
2022-08-07T13:03:59.288Z,2.03
2022-08-07T13:06:03.406Z,1.92
2022-08-07T13:08:23.073Z,3.88
2022-08-07T13:10:37.664Z,2.75
2022-08-07T13:12:15.315Z,1.65
2022-08-07T13:14:02.038Z,4.90
2022-08-07T13:15:43.241Z,3.85
2022-08-07T13:17:39.711Z,3.60
2022-08-07T13:19:35.259Z,4.53
2022-08-07T13:21:37.202Z,4.00
2022-08-07T13:24:01.952Z,3.30
2022-08-07T13:25:24.077Z,5.00
2022-08-07T13:27:10.368Z,5.43
2022-08-07T13:28:50.013Z,3.25
2022-08-07T13:30:39.837Z,2.63
2022-08-07T13:32:23.771Z,4.95
2022-08-07T13:34:33.999Z,3.08
2022-08-07T13:36:17.474Z,5.15
2022-08-07T13:37:58.524Z,3.75
2022-08-07T13:40:34.165Z,4.20
2022-08-07T13:41:42.475Z,2.22
2022-08-07T13:43:21.711Z,4.22
2022-08-07T13:45:20.710Z,3.67
2022-08-07T13:46:54.232Z,4.18
2022-08-07T13:48:34.732Z,3.15
2022-08-07T13:50:33.526Z,3.63
2022-08-07T13:52:30.515Z,3.65
2022-08-07T13:54:02.005Z,2.90
2022-08-07T13:55:37.289Z,2.25
2022-08-07T13:57:24.296Z,3.45
2022-08-07T13:59:10.363Z,2.95
2022-08-07T14:00:54.196Z,4.32
2022-08-07T14:02:33.398Z,4.68
2022-08-07T14:04:14.894Z,5.07
2022-08-07T14:05:50.930Z,2.72
2022-08-07T14:07:27.741Z,4.22
2022-08-07T14:09:04.484Z,2.45
2022-08-07T14:10:42.274Z,6.00
2022-08-07T14:12:36.040Z,3.95
2022-08-07T14:14:15.641Z,3.45
2022-08-07T14:15:52.139Z,2.95
2022-08-07T14:17:51.519Z,3.35
2022-08-07T14:20:40.130Z,2.08
2022-08-07T14:22:01.145Z,4.97
2022-08-07T14:23:31.462Z,3.63
2022-08-07T14:25:17.104Z,4.18
2022-08-07T14:26:54.551Z,2.78
2022-08-07T14:28:32.044Z,4.72
2022-08-07T14:30:10.961Z,6.15
2022-08-07T14:31:56.034Z,3.10
2022-08-07T14:33:44.936Z,4.15
2022-08-07T14:35:43.190Z,2.58
2022-08-07T14:37:16.756Z,3.95
2022-08-07T14:38:50.937Z,4.57
2022-08-07T14:40:27.227Z,6.90
2022-08-07T14:42:18.580Z,3.67
2022-08-07T14:44:08.033Z,6.70
2022-08-07T14:47:37.840Z,3.95
2022-08-07T14:49:17.585Z,4.50
2022-08-07T14:51:16.259Z,6.05
2022-08-07T14:52:50.423Z,4.45
2022-08-07T14:54:34.785Z,5.65
2022-08-07T14:58:04.910Z,3.60
2022-08-07T15:00:03.240Z,5.55
2022-08-07T15:03:51.459Z,3.10
2022-08-07T15:05:24.232Z,3.13
2022-08-07T15:06:57.036Z,8.40
2022-08-07T15:10:40.511Z,5.88
2022-08-07T15:12:36.939Z,4.03
2022-08-07T15:14:20.138Z,4.75
2022-08-07T15:15:58.014Z,5.55
2022-08-07T15:17:55.485Z,6.95
2022-08-07T15:20:30.905Z,5.68
2022-08-07T15:21:58.804Z,6.90
2022-08-07T15:23:53.609Z,4.15
2022-08-07T15:25:24.229Z,5.57
2022-08-07T15:27:11.491Z,5.10
2022-08-07T15:28:55.558Z,3.92
2022-08-07T15:30:33.117Z,3.42
2022-08-07T15:32:07.749Z,3.05
2022-08-07T15:33:45.929Z,3.38
2022-08-07T15:39:12.266Z,3.47
2022-08-07T15:41:00.105Z,3.80
2022-08-07T15:42:55.021Z,5.85
2022-08-07T15:44:30.957Z,8.73
2022-08-07T15:46:31.567Z,5.82
2022-08-07T15:48:20.404Z,3.83
2022-08-07T15:50:04.397Z,7.97
2022-08-07T15:53:51.825Z,5.63
2022-08-07T15:56:02.145Z,5.55
2022-08-07T15:57:40.229Z,5.50
2022-08-07T15:59:39.594Z,6.30
2022-08-07T16:01:20.396Z,5.57
2022-08-07T16:02:55.969Z,4.60
2022-08-07T16:04:33.428Z,4.07
2022-08-07T16:06:06.899Z,4.90
2022-08-07T16:08:32.607Z,6.53
2022-08-07T16:09:45.264Z,5.68
2022-08-07T16:11:32.331Z,6.35
2022-08-07T16:14:00.191Z,7.50
2022-08-07T16:15:57.841Z,6.97
2022-08-07T16:18:01.625Z,6.38
2022-08-07T16:20:04.218Z,6.35
2022-08-07T16:22:05.138Z,6.60
2022-08-07T16:23:58.347Z,6.43
2022-08-07T16:25:52.479Z,5.38
2022-08-07T16:27:40.407Z,6.05
2022-08-07T16:30:10.799Z,6.28
2022-08-07T16:31:50.875Z,4.22
2022-08-07T16:34:07.147Z,5.72
2022-08-07T16:35:32.598Z,5.40
2022-08-07T16:38:05.694Z,5.68
2022-08-07T16:40:03.219Z,6.38
2022-08-07T16:42:01.249Z,7.28
2022-08-07T16:44:03.673Z,7.05
2022-08-07T16:47:02.991Z,4.80
2022-08-07T16:48:28.658Z,6.63
2022-08-07T16:50:35.794Z,10.07
2022-08-07T16:52:51.419Z,7.80
2022-08-07T16:54:40.357Z,7.97
2022-08-07T16:56:37.255Z,5.93
2022-08-07T16:58:20.634Z,7.07
2022-08-07T17:00:02.511Z,8.27
2022-08-07T17:01:41.391Z,7.70
2022-08-07T17:03:19.350Z,3.88
2022-08-07T17:06:26.586Z,4.90
2022-08-07T17:07:28.534Z,5.78
2022-08-07T17:10:07.833Z,8.20
2022-08-07T17:11:16.931Z,5.30
2022-08-07T17:12:53.899Z,6.32
2022-08-07T17:14:37.290Z,6.05
2022-08-07T17:16:16.949Z,5.55
2022-08-07T17:18:03.014Z,6.68
2022-08-07T17:20:02.681Z,6.88
2022-08-07T17:21:51.646Z,6.07
2022-08-07T17:23:39.966Z,5.85
2022-08-07T17:25:16.259Z,7.13
2022-08-07T17:26:56.063Z,6.72
2022-08-07T17:28:37.158Z,4.72
2022-08-07T17:30:15.158Z,6.38
2022-08-07T17:32:02.636Z,7.70
2022-08-07T17:34:10.122Z,8.75
2022-08-07T17:35:54.778Z,5.72
2022-08-07T17:38:06.476Z,5.57
2022-08-07T17:39:58.187Z,5.38
2022-08-07T17:42:04.072Z,6.50
2022-08-07T17:44:02.980Z,6.70
2022-08-07T17:45:27.842Z,6.07
2022-08-07T17:47:04.011Z,4.65
2022-08-07T17:48:55.556Z,6.05
2022-08-07T17:50:46.861Z,4.80
2022-08-07T17:52:30.580Z,8.00
2022-08-07T17:54:12.568Z,7.25
2022-08-07T17:55:56.570Z,7.38
2022-08-07T17:57:58.665Z,6.72
2022-08-07T17:59:42.155Z,5.55
2022-08-07T18:01:22.667Z,5.43
2022-08-07T18:02:57.900Z,5.18
2022-08-07T18:04:35.134Z,7.10
2022-08-07T18:06:16.705Z,6.00
2022-08-07T18:08:16.440Z,5.07
2022-08-07T18:10:05.818Z,5.25
2022-08-07T18:12:17.715Z,6.82
2022-08-07T18:13:44.860Z,6.90
2022-08-07T18:15:32.630Z,6.03
2022-08-07T18:18:36.509Z,6.75
2022-08-07T18:21:11.508Z,8.43
2022-08-07T18:21:37.404Z,5.75
2022-08-07T18:23:43.031Z,6.18
2022-08-07T18:25:39.173Z,5.50
2022-08-07T18:27:21.022Z,5.55
2022-08-07T18:30:04.566Z,8.05
2022-08-07T18:31:05.354Z,5.45
2022-08-07T18:33:10.876Z,5.97
2022-08-07T18:35:02.514Z,6.75
2022-08-07T18:36:54.073Z,7.97
2022-08-07T18:38:56.459Z,4.65
2022-08-07T18:40:42.675Z,5.82
2022-08-07T18:42:31.624Z,6.88
2022-08-07T18:44:22.708Z,5.68
2022-08-07T18:46:24.398Z,7.45
2022-08-07T18:48:00.526Z,7.00
2022-08-07T18:50:33.149Z,7.15
2022-08-07T18:52:41.062Z,5.93
2022-08-07T18:53:54.380Z,8.38
2022-08-07T18:55:42.347Z,6.68
2022-08-07T18:57:30.751Z,6.15
2022-08-07T18:59:47.310Z,6.72
2022-08-07T19:02:33.049Z,6.88
2022-08-07T19:03:35.433Z,6.82
2022-08-07T19:05:20.500Z,7.07
2022-08-07T19:06:57.917Z,5.43
2022-08-07T19:08:43.255Z,7.43
2022-08-07T19:10:22.661Z,7.97
2022-08-07T19:12:15.466Z,6.80
2022-08-07T19:13:59.319Z,6.20
2022-08-07T19:16:05.452Z,7.18
2022-08-07T19:18:03.882Z,7.82
2022-08-07T19:19:53.435Z,9.65
2022-08-07T19:21:47.466Z,7.18
2022-08-07T19:23:58.990Z,7.95
2022-08-07T19:26:25.027Z,7.38
2022-08-07T19:29:03.358Z,7.43
2022-08-07T19:31:04.382Z,7.63
2022-08-07T19:31:37.405Z,7.20
2022-08-07T19:33:18.394Z,7.47
2022-08-07T19:34:52.628Z,8.18
2022-08-07T19:36:27.803Z,8.05
2022-08-07T19:38:15.750Z,5.70
2022-08-07T19:40:01.884Z,8.10
2022-08-07T19:41:44.826Z,7.68
2022-08-07T19:43:48.592Z,10.68
2022-08-07T19:46:06.183Z,7.10
2022-08-07T19:47:27.360Z,6.10
2022-08-07T19:49:05.115Z,6.85
2022-08-07T19:50:44.189Z,7.50
2022-08-07T19:52:22.586Z,6.40
2022-08-07T19:54:32.371Z,7.97
2022-08-07T19:55:57.453Z,6.55
2022-08-07T19:58:01.820Z,6.53
2022-08-07T19:59:40.929Z,6.15
2022-08-07T20:01:15.706Z,6.93
2022-08-07T20:02:53.643Z,6.57
2022-08-07T20:04:31.868Z,8.57
2022-08-07T20:06:28.385Z,6.43
2022-08-07T20:08:04.761Z,7.15
2022-08-07T20:10:35.778Z,6.28
2022-08-07T20:12:22.487Z,8.30
2022-08-07T20:13:41.830Z,6.60
2022-08-07T20:15:22.348Z,6.47
2022-08-07T20:16:56.927Z,5.45
2022-08-07T20:18:34.489Z,7.55
2022-08-07T20:20:08.465Z,5.68
2022-08-07T20:21:47.228Z,8.65
2022-08-07T20:23:32.912Z,6.28
2022-08-07T20:25:20.382Z,7.35
2022-08-07T20:26:55.740Z,6.57
2022-08-07T20:28:30.745Z,8.43
2022-08-07T20:30:07.669Z,7.43
2022-08-07T20:31:45.026Z,7.45
2022-08-07T20:33:36.356Z,7.57
2022-08-07T20:35:16.019Z,8.23
2022-08-07T20:36:51.921Z,8.10
2022-08-07T20:38:24.432Z,7.25
2022-08-07T20:40:03.637Z,7.45
2022-08-07T20:41:38.289Z,7.55
2022-08-07T20:43:16.953Z,9.32
2022-08-07T20:44:52.846Z,7.45
2022-08-07T20:46:32.272Z,7.15
2022-08-07T20:49:58.424Z,7.30
2022-08-07T20:51:36.093Z,6.50
2022-08-07T20:53:15.695Z,7.25
2022-08-07T20:54:53.707Z,10.32
2022-08-07T20:56:30.385Z,7.07
2022-08-07T20:58:11.797Z,6.40
2022-08-07T21:00:07.011Z,6.28
2022-08-07T21:01:54.864Z,7.45
2022-08-07T21:03:27.899Z,7.97
2022-08-07T21:05:01.723Z,7.80
2022-08-07T21:06:53.388Z,7.55
2022-08-07T21:08:38.148Z,7.35
2022-08-07T21:10:13.824Z,8.07
2022-08-07T21:11:52.792Z,7.93
2022-08-07T21:13:43.653Z,7.43
2022-08-07T21:15:23.031Z,8.05
2022-08-07T21:18:03.309Z,8.07
2022-08-07T21:19:13.857Z,7.85
2022-08-07T21:20:48.480Z,8.23
2022-08-07T21:22:31.057Z,7.20
2022-08-07T21:24:11.662Z,8.50
2022-08-07T21:26:03.074Z,11.68
2022-08-07T21:27:47.030Z,9.82
2022-08-07T21:29:23.116Z,8.32
2022-08-07T21:31:10.957Z,8.57
2022-08-07T21:32:50.306Z,9.45
2022-08-07T21:34:31.882Z,6.75
2022-08-07T21:36:11.788Z,8.30
2022-08-07T21:38:13.192Z,9.38
2022-08-07T21:39:56.418Z,8.00
2022-08-07T21:41:52.184Z,9.95
2022-08-07T21:43:55.099Z,8.52
2022-08-07T21:46:11.077Z,7.65
2022-08-07T21:47:34.634Z,8.07
2022-08-07T21:49:16.368Z,8.35
2022-08-07T21:50:52.415Z,8.95
2022-08-07T21:52:34.321Z,8.43
2022-08-07T21:54:19.477Z,8.35
2022-08-07T21:56:00.691Z,8.88
2022-08-07T21:57:52.287Z,9.07
2022-08-07T22:00:03.172Z,9.38
2022-08-07T22:02:07.173Z,8.10
2022-08-07T22:03:33.832Z,9.52
2022-08-07T22:05:21.722Z,8.57
2022-08-07T22:07:06.616Z,9.85
2022-08-07T22:08:48.858Z,8.73
2022-08-07T22:10:28.331Z,9.95
2022-08-07T22:12:11.561Z,10.25
2022-08-07T22:13:55.133Z,12.98
2022-08-07T22:16:43.244Z,11.88
2022-08-07T22:17:36.042Z,8.90
2022-08-07T22:19:18.097Z,12.15
2022-08-07T22:21:05.085Z,10.25
2022-08-07T22:22:46.807Z,8.30
2022-08-07T22:24:32.699Z,8.70
2022-08-07T22:26:13.313Z,11.73
2022-08-07T22:28:07.570Z,10.00
2022-08-07T22:29:49.765Z,10.55
2022-08-07T22:31:56.117Z,9.50
2022-08-07T22:33:52.846Z,9.48
2022-08-07T22:35:17.616Z,10.73
2022-08-07T22:37:09.414Z,12.10
2022-08-07T22:38:51.911Z,9.27
2022-08-07T22:40:28.693Z,11.00
2022-08-07T22:42:19.461Z,9.65
2022-08-07T22:43:58.309Z,10.40
2022-08-07T22:46:40.500Z,10.40
2022-08-07T22:48:31.538Z,8.57
2022-08-07T22:50:33.006Z,12.02
2022-08-07T22:52:19.574Z,10.45
2022-08-07T22:54:30.325Z,9.38
2022-08-07T22:56:08.705Z,9.75
2022-08-07T22:57:54.303Z,9.73
2022-08-07T22:59:50.217Z,10.32
2022-08-07T23:01:59.295Z,9.32
2022-08-07T23:03:57.281Z,9.35
2022-08-07T23:06:08.459Z,10.73
2022-08-07T23:07:56.743Z,9.98
2022-08-07T23:10:01.084Z,8.93
2022-08-07T23:11:44.170Z,9.20
2022-08-07T23:13:48.847Z,8.90
2022-08-07T23:16:05.857Z,9.30
2022-08-07T23:17:54.523Z,10.15
2022-08-07T23:19:58.028Z,7.95
2022-08-07T23:21:42.792Z,8.60
2022-08-07T23:24:04.063Z,10.45
2022-08-07T23:25:41.576Z,7.93
2022-08-07T23:27:33.810Z,10.50
2022-08-07T23:30:37.970Z,9.27
2022-08-07T23:34:19.472Z,8.77
2022-08-07T23:34:21.481Z,8.05
2022-08-07T23:36:10.614Z,10.10
2022-08-07T23:38:19.136Z,10.18
2022-08-07T23:40:07.661Z,9.18
2022-08-07T23:42:05.357Z,9.65
2022-08-07T23:44:08.301Z,8.68
2022-08-07T23:46:03.053Z,9.73
2022-08-07T23:48:01.609Z,7.70
2022-08-07T23:50:03.933Z,9.23
2022-08-07T23:53:17.190Z,11.23
2022-08-07T23:53:49.603Z,9.82
2022-08-07T23:55:51.880Z,11.25